Time;durP1;ratioP1;P1;durP2;ratioP2;P2;SDS_P1;SDS_P2;PMS_P1;PMS_P2;Temp;Humidity;BMP_temperature;BMP_pressure;BME280_temperature;BME280_humidity;BME280_pressure;Samples;Min_cycle;Max_cycle;Signal;HPM_P1;HPM_P2
2022/03/27 00:00:40;;;;;;;;;;;;;;;-145.06;0.00;60892.56;4689307;29;19916;-89
2022/03/27 00:03:19;;;;;;;;;;;;;;;9.38;0.00;60892.56;4682125;29;20279;-89
2022/03/27 00:05:58;;;;;;;;;;;;;;;9.38;0.00;60892.56;4689469;29;19920;-90
2022/03/27 00:08:37;;;;;;;;;;;;;;;-145.06;0.00;60892.56;4689378;29;19912;-90
2022/03/27 00:11:27;;;;;;;;;;;;;;;-145.06;0.00;60892.56;4692579;29;20010;-89
2022/03/27 00:14:06;;;;;;;;;;;;;;;-145.06;0.00;60892.56;4688264;29;19955;-90
2022/03/27 00:16:45;;;;;;;;;;;;;;;-145.06;0.00;60892.56;4689292;29;20379;-90
2022/03/27 00:19:24;;;;;;;;;;;;;;;-145.06;0.00;60892.56;4698413;29;20298;-89
2022/03/27 00:22:05;;;;;;;;;;;;;;;-145.06;0.00;60892.56;4687755;29;20268;-90
2022/03/27 00:24:43;;;;;;;;;;;;;;;-145.06;0.00;60892.56;4689914;29;19912;-89
2022/03/27 00:27:23;;;;;;;;;;;;;;;-145.06;0.00;60892.56;4692270;29;19920;-88
2022/03/27 00:30:02;;;;;;;;;;;;;;;-145.06;0.00;60892.56;4688243;29;19920;-90
2022/03/27 00:32:41;;;;;;;;;;;;;;;-145.06;0.00;60892.56;4687804;29;19916;-89
2022/03/27 00:35:20;;;;;;;;;;;;;;;-145.06;0.00;60892.56;4692136;29;19919;-90
2022/03/27 00:37:59;;;;;;;;;;;;;;;-145.06;0.00;60892.56;4692892;29;19915;-90
2022/03/27 00:40:38;;;;;;;;;;;;;;;-145.06;0.00;60892.56;4689235;29;19959;-89
2022/03/27 00:43:17;;;;;;;;;;;;;;;-145.06;0.00;60892.56;4703226;29;19920;-90
2022/03/27 00:45:57;;;;;;;;;;;;;;;-145.06;0.00;60892.56;4692641;29;19916;-90
2022/03/27 00:48:35;;;;;;;;;;;;;;;-145.06;0.00;60892.56;4679032;29;20462;-90
2022/03/27 00:51:15;;;;;;;;;;;;;;;-145.06;0.00;60892.56;4693285;29;19912;-90
2022/03/27 00:53:54;;;;;;;;;;;;;;;-145.06;0.00;60892.56;4692308;29;19919;-90
2022/03/27 00:56:33;;;;;;;;;;;;;;;-145.06;0.00;60892.56;4692093;29;20516;-89
2022/03/27 00:59:12;;;;;;;;;;;;;;;-145.06;0.00;60892.56;4700341;29;19920;-89
2022/03/27 01:01:51;;;;;;;;;;;;;;;-145.06;0.00;60892.56;4691533;29;19912;-89
2022/03/27 01:04:30;;;;;;;;;;;;;;;-145.06;0.00;60892.56;4685312;29;20366;-91
2022/03/27 01:07:12;;;;;;;;;;;;;;;-145.06;0.00;60892.56;4694574;29;20002;-90
2022/03/27 01:09:51;;;;;;;;;;;;;;;-145.06;0.00;60892.56;4689134;29;20256;-89
2022/03/27 01:12:39;;;;;;;;;;;;;;;-145.06;0.00;60892.56;4698048;29;19991;-89
2022/03/27 01:15:31;;;;;;;;;;;;;;;-145.06;0.00;60892.56;4689501;29;19920;-89
2022/03/27 01:18:10;;;;;;;;;;;;;;;-145.06;0.00;60892.56;4695891;29;19920;-89
2022/03/27 01:20:49;;;;;;;;;;;;;;;-145.06;0.00;60892.56;4686096;29;19916;-89
2022/03/27 01:23:28;;;;;;;;;;;;;;;-145.06;0.00;60892.56;4693701;29;19916;-89
2022/03/27 01:26:07;;;;;;;;;;;;;;;-145.06;0.00;60892.56;4690126;29;19949;-89
2022/03/27 01:28:46;;;;;;;;;;;;;;;-145.06;0.00;60892.56;4685399;29;19916;-89
2022/03/27 01:31:25;;;;;;;;;;;;;;;-145.06;0.00;60892.56;4692976;29;19920;-90
2022/03/27 01:34:05;;;;;;;;;;;;;;;-145.06;0.00;60892.56;4691710;29;19916;-89
2022/03/27 01:36:44;;;;;;;;;;;;;;;-145.06;0.00;60892.56;4688035;29;19916;-90
2022/03/27 01:39:23;;;;;;;;;;;;;;;-145.06;0.00;60892.56;4688456;29;19920;-90
2022/03/27 01:42:03;;;;;;;;;;;;;;;8.07;0.00;60892.56;4692184;29;19916;-90
2022/03/27 01:44:42;;;;;;;;;;;;;;;8.06;0.00;60892.56;4700056;29;20007;-90
2022/03/27 01:47:21;;;;;;;;;;;;;;;8.03;0.00;60892.56;4681735;29;19920;-90
2022/03/27 01:50:04;;;;;;;;;;;;;;;8.04;0.00;60892.56;4681089;29;19916;-89
2022/03/27 01:52:43;;;;;;;;;;;;;;;8.00;0.00;60892.56;4693726;29;19919;-89
2022/03/27 01:55:22;;;;;;;;;;;;;;;10.68;0.00;60892.56;4681291;29;19916;-90
2022/03/27 01:58:01;;;;;;;;;;;;;;;7.96;0.00;60892.56;4691185;29;19920;-89
2022/03/27 02:00:42;;;;;;;;;;;;;;;10.68;0.00;60892.56;4691215;29;19912;-89
2022/03/27 02:03:22;;;;;;;;;;;;;;;7.92;0.00;60892.56;4690914;29;19924;-90
2022/03/27 02:06:05;;;;;;;;;;;;;;;7.90;0.00;60892.56;4700283;29;19915;-89
2022/03/27 02:08:44;;;;;;;;;;;;;;;7.89;0.00;60892.56;4693202;29;19959;-90
2022/03/27 02:11:23;;;;;;;;;;;;;;;7.89;0.00;60892.56;4691594;29;19919;-90
2022/03/27 02:14:02;;;;;;;;;;;;;;;7.90;0.00;60892.56;4691193;29;19919;-89
2022/03/27 02:16:42;;;;;;;;;;;;;;;7.87;0.00;60892.56;4703662;29;19912;-89
2022/03/27 02:19:21;;;;;;;;;;;;;;;7.88;0.00;60892.56;4690687;29;19920;-89
2022/03/27 02:22:00;;;;;;;;;;;;;;;7.84;0.00;60892.56;4693637;29;19916;-88
2022/03/27 02:24:39;;;;;;;;;;;;;;;7.81;0.00;60892.56;4684890;29;19966;-89
2022/03/27 02:27:18;;;;;;;;;;;;;;;7.84;0.00;60892.56;4690846;29;19944;-90
2022/03/27 02:29:57;;;;;;;;;;;;;;;7.84;0.00;60892.56;4686263;29;19916;-90
2022/03/27 02:32:36;;;;;;;;;;;;;;;-145.06;0.00;60892.56;4694349;29;19920;-91
2022/03/27 02:35:15;;;;;;;;;;;;;;;-145.06;0.00;60892.56;4691595;29;19916;-89
2022/03/27 02:37:54;;;;;;;;;;;;;;;-145.06;0.00;60892.56;4690123;29;19935;-89
2022/03/27 02:40:38;;;;;;;;;;;;;;;-145.06;0.00;60892.56;4692857;29;19920;-90
2022/03/27 02:43:17;;;;;;;;;;;;;;;-145.06;0.00;60892.56;4690664;29;20366;-89
2022/03/27 02:45:56;;;;;;;;;;;;;;;-145.06;0.00;60892.56;4689742;29;19916;-89
2022/03/27 02:48:35;;;;;;;;;;;;;;;-145.06;0.00;60892.56;4690831;29;20541;-89
2022/03/27 02:51:14;;;;;;;;;;;;;;;-145.06;0.00;60892.56;4693678;29;19995;-90
2022/03/27 02:53:53;;;;;;;;;;;;;;;-145.06;0.00;60892.56;4698863;29;20646;-90
2022/03/27 02:56:32;;;;;;;;;;;;;;;-145.06;0.00;60892.56;4698334;29;20411;-89
2022/03/27 02:59:11;;;;;;;;;;;;;;;-145.06;0.00;60892.56;4698591;29;20355;-90
2022/03/27 03:01:50;;;;;;;;;;;;;;;-145.06;0.00;60892.56;4700025;29;19967;-90
2022/03/27 03:04:33;;;;;;;;;;;;;;;-145.06;0.00;60892.56;4687244;29;20371;-90
2022/03/27 03:07:14;;;;;;;;;;;;;;;-145.06;0.00;60892.56;4703541;29;19951;-89
2022/03/27 03:09:54;;;;;;;;;;;;;;;-145.06;0.00;60892.56;4689011;29;19915;-89
2022/03/27 03:12:33;;;;;;;;;;;;;;;-145.06;0.00;60892.56;4692567;29;20326;-88
2022/03/27 03:15:12;;;;;;;;;;;;;;;-145.06;0.00;60892.56;4686072;29;19998;-89
2022/03/27 03:17:51;;;;;;;;;;;;;;;-145.06;0.00;60892.56;4689318;29;19916;-88
2022/03/27 03:20:31;;;;;;;;;;;;;;;-145.06;0.00;60892.56;4695590;29;19919;-89
2022/03/27 03:23:09;;;;;;;;;;;;;;;-145.06;0.00;60892.56;4689895;29;19928;-89
2022/03/27 03:25:48;;;;;;;;;;;;;;;-145.06;0.00;60892.56;4686371;29;19916;-89
2022/03/27 03:28:27;;;;;;;;;;;;;;;-145.06;0.00;60892.56;4690060;29;19920;-89
2022/03/27 03:31:06;;;;;;;;;;;;;;;-145.06;0.00;60892.56;4693432;29;19920;-89
2022/03/27 03:33:45;;;;;;;;;;;;;;;-145.06;0.00;60892.56;4695629;29;19912;-90
2022/03/27 03:36:24;;;;;;;;;;;;;;;-145.06;0.00;60892.56;4696661;29;20443;-89
2022/03/27 03:39:03;;;;;;;;;;;;;;;-145.06;0.00;60892.56;4689613;29;19912;-89
2022/03/27 03:41:42;;;;;;;;;;;;;;;-145.06;0.00;60892.56;4683053;29;19920;-89
2022/03/27 03:44:21;;;;;;;;;;;;;;;-145.06;0.00;60892.56;4686607;29;19924;-90
2022/03/27 03:47:01;;;;;;;;;;;;;;;-145.06;0.00;60892.56;4691245;29;19915;-89
2022/03/27 03:49:40;;;;;;;;;;;;;;;-145.06;0.00;60892.56;4692585;29;19920;-89
2022/03/27 03:52:19;;;;;;;;;;;;;;;-145.06;0.00;60892.56;4696101;29;19920;-90
2022/03/27 03:54:58;;;;;;;;;;;;;;;-145.06;0.00;60892.56;4690148;29;19916;-89
2022/03/27 03:57:37;;;;;;;;;;;;;;;-145.06;0.00;60892.56;4671927;29;19960;-90
2022/03/27 04:00:16;;;;;;;;;;;;;;;-145.06;0.00;60892.56;4683725;29;19915;-89
2022/03/27 04:02:55;;;;;;;;;;;;;;;-145.06;0.00;60892.56;4688779;29;19920;-89
2022/03/27 04:05:34;;;;;;;;;;;;;;;-145.06;0.00;60892.56;4689038;29;19924;-89
2022/03/27 04:08:14;;;;;;;;;;;;;;;-145.06;0.00;60892.56;4689204;29;19916;-89
2022/03/27 04:10:53;;;;;;;;;;;;;;;-145.06;0.00;60892.56;4689570;29;19916;-90
2022/03/27 04:13:32;;;;;;;;;;;;;;;-145.06;0.00;60892.56;4688893;29;20323;-89
2022/03/27 04:16:11;;;;;;;;;;;;;;;-145.06;0.00;60892.56;4685469;29;19920;-90
2022/03/27 04:18:50;;;;;;;;;;;;;;;-145.06;0.00;60892.56;4688609;29;20367;-90
2022/03/27 04:21:29;;;;;;;;;;;;;;;-145.06;0.00;60892.56;4688714;29;20075;-90
2022/03/27 04:24:08;;;;;;;;;;;;;;;-145.06;0.00;60892.56;4694175;29;20291;-90
2022/03/27 04:26:47;;;;;;;;;;;;;;;-145.06;0.00;60892.56;4689089;29;19951;-90
2022/03/27 04:29:26;;;;;;;;;;;;;;;-145.06;0.00;60892.56;4699382;29;19958;-90
2022/03/27 04:32:05;;;;;;;;;;;;;;;-145.06;0.00;60892.56;4688768;29;19916;-90
2022/03/27 04:34:44;;;;;;;;;;;;;;;-145.06;0.00;60892.56;4688173;29;20562;-89
2022/03/27 04:37:22;;;;;;;;;;;;;;;-145.06;0.00;60892.56;4689247;29;19923;-90
2022/03/27 04:40:02;;;;;;;;;;;;;;;-145.06;0.00;60892.56;4684943;29;19916;-90
2022/03/27 04:42:42;;;;;;;;;;;;;;;-145.06;0.00;60892.56;4695749;29;19920;-89
2022/03/27 04:45:20;;;;;;;;;;;;;;;-145.06;0.00;60892.56;4687050;29;19916;-90
2022/03/27 04:47:59;;;;;;;;;;;;;;;-145.06;0.00;60892.56;4694186;29;19943;-89
2022/03/27 04:50:38;;;;;;;;;;;;;;;-145.06;0.00;60892.56;4688062;29;19920;-88
2022/03/27 04:53:17;;;;;;;;;;;;;;;-145.06;0.00;60892.56;4697186;29;19916;-89
2022/03/27 04:55:56;;;;;;;;;;;;;;;-145.06;0.00;60892.56;4687729;29;19919;-89
2022/03/27 04:58:35;;;;;;;;;;;;;;;-145.06;0.00;60892.56;4686917;29;19912;-90
2022/03/27 05:01:14;;;;;;;;;;;;;;;-145.06;0.00;60892.56;4682776;29;19959;-89
2022/03/27 05:03:53;;;;;;;;;;;;;;;-145.06;0.00;60892.56;4704471;29;19924;-89
2022/03/27 05:06:33;;;;;;;;;;;;;;;-145.06;0.00;60892.56;4688273;29;19959;-89
2022/03/27 05:09:11;;;;;;;;;;;;;;;-145.06;0.00;60892.56;4689177;29;19912;-90
2022/03/27 05:11:50;;;;;;;;;;;;;;;-145.06;0.00;60892.56;4687274;29;20372;-89
2022/03/27 05:14:29;;;;;;;;;;;;;;;-145.06;0.00;60892.56;4692009;29;19915;-88
2022/03/27 05:17:11;;;;;;;;;;;;;;;-145.06;0.00;60892.56;4687918;29;19919;-90
2022/03/27 05:19:50;;;;;;;;;;;;;;;-145.06;0.00;60892.56;4685770;29;20350;-89
2022/03/27 05:22:29;;;;;;;;;;;;;;;-145.06;0.00;60892.56;4688626;29;19971;-90
2022/03/27 05:25:12;;;;;;;;;;;;;;;-145.06;0.00;60892.56;4701307;29;20371;-89
2022/03/27 05:27:53;;;;;;;;;;;;;;;-145.06;0.00;60892.56;4693105;29;19945;-89
2022/03/27 05:30:32;;;;;;;;;;;;;;;-145.06;0.00;60892.56;4690158;29;20255;-90
2022/03/27 05:33:11;;;;;;;;;;;;;;;-145.06;0.00;60892.56;4691590;29;19916;-89
2022/03/27 05:35:53;;;;;;;;;;;;;;;-145.06;0.00;60892.56;4684635;29;19920;-89
2022/03/27 05:38:32;;;;;;;;;;;;;;;-145.06;0.00;60892.56;4689292;29;19916;-89
2022/03/27 05:41:10;;;;;;;;;;;;;;;-145.06;0.00;60892.56;4695479;29;19916;-89
2022/03/27 05:43:49;;;;;;;;;;;;;;;-145.06;0.00;60892.56;4685320;29;19924;-89
2022/03/27 05:46:28;;;;;;;;;;;;;;;-145.06;0.00;60892.56;4692883;29;20255;-89
2022/03/27 05:49:07;;;;;;;;;;;;;;;-145.06;0.00;60892.56;4693721;29;19916;-89
2022/03/27 05:51:46;;;;;;;;;;;;;;;-145.06;0.00;60892.56;4690783;29;19916;-89
2022/03/27 05:54:25;;;;;;;;;;;;;;;-145.06;0.00;60892.56;4690560;29;19920;-89
2022/03/27 05:57:04;;;;;;;;;;;;;;;-145.06;0.00;60892.56;4686365;29;20006;-90
2022/03/27 05:59:43;;;;;;;;;;;;;;;-145.06;0.00;60892.56;4701698;29;20390;-89
2022/03/27 06:02:22;;;;;;;;;;;;;;;-145.06;0.00;60892.56;4697456;29;19967;-89
2022/03/27 06:05:01;;;;;;;;;;;;;;;-145.06;0.00;60892.56;4691142;29;19916;-89
2022/03/27 06:07:44;;;;;;;;;;;;;;;-145.06;0.00;60892.56;4696411;29;19920;-89
2022/03/27 06:10:28;;;;;;;;;;;;;;;-145.06;0.00;60892.56;4691182;29;20374;-89
2022/03/27 06:13:10;;;;;;;;;;;;;;;-145.06;0.00;60892.56;4694825;29;19916;-89
2022/03/27 06:15:51;;;;;;;;;;;;;;;-145.06;0.00;60892.56;4687639;29;19919;-89
2022/03/27 06:18:29;;;;;;;;;;;;;;;-145.06;0.00;60892.56;4690234;29;19920;-89
2022/03/27 06:21:08;;;;;;;;;;;;;;;-145.06;0.00;60892.56;4691746;29;20355;-89
2022/03/27 06:23:48;;;;;;;;;;;;;;;-145.06;0.00;60892.56;4700288;29;19919;-89
2022/03/27 06:26:27;;;;;;;;;;;;;;;-145.06;0.00;60892.56;4694400;29;20367;-89
2022/03/27 06:29:09;;;;;;;;;;;;;;;-145.06;0.00;60892.56;4690048;29;19920;-90
2022/03/27 06:31:48;;;;;;;;;;;;;;;-145.06;0.00;60892.56;4690403;29;19999;-89
2022/03/27 06:34:29;;;;;;;;;;;;;;;-145.06;0.00;60892.56;4685085;29;19916;-88
2022/03/27 06:37:08;;;;;;;;;;;;;;;-145.06;0.00;60892.56;4696676;29;19912;-90
2022/03/27 06:39:48;;;;;;;;;;;;;;;-145.06;0.00;60892.56;4690104;29;19916;-89
2022/03/27 06:42:27;;;;;;;;;;;;;;;-145.06;0.00;60892.56;4684316;29;19924;-89
2022/03/27 06:45:06;;;;;;;;;;;;;;;-145.06;0.00;60892.56;4689985;29;19912;-89
2022/03/27 06:47:46;;;;;;;;;;;;;;;-145.06;0.00;60892.56;4688375;29;20382;-89
2022/03/27 06:50:25;;;;;;;;;;;;;;;-145.06;0.00;60892.56;4689924;29;20549;-90
2022/03/27 06:53:05;;;;;;;;;;;;;;;-145.06;0.00;60892.56;4694828;29;20006;-90
2022/03/27 06:55:44;;;;;;;;;;;;;;;-145.06;0.00;60892.56;4702911;29;19999;-90
2022/03/27 06:58:23;;;;;;;;;;;;;;;-145.06;0.00;60892.56;4687691;29;20001;-89
2022/03/27 07:04:00;;;;;;;;;;;;;;;-145.06;0.00;60892.56;4688443;29;20271;-89
2022/03/27 07:06:42;;;;;;;;;;;;;;;-145.06;0.00;60892.56;4697554;29;20152;-89
2022/03/27 07:09:21;;;;;;;;;;;;;;;-145.06;0.00;60892.56;4689853;29;19920;-90
2022/03/27 07:12:00;;;;;;;;;;;;;;;-145.06;0.00;60892.56;4692316;29;19920;-89
2022/03/27 07:14:40;;;;;;;;;;;;;;;-145.06;0.00;60892.56;4685653;29;19916;-89
2022/03/27 07:17:19;;;;;;;;;;;;;;;-145.06;0.00;60892.56;4681403;29;19920;-88
2022/03/27 07:19:57;;;;;;;;;;;;;;;-145.06;0.00;60892.56;4689522;29;19912;-88
2022/03/27 07:22:36;;;;;;;;;;;;;;;-145.06;0.00;60892.56;4697230;29;20526;-88
2022/03/27 07:25:16;;;;;;;;;;;;;;;-145.06;0.00;60892.56;4689031;29;20007;-89
2022/03/27 07:27:55;;;;;;;;;;;;;;;-145.06;0.00;60892.56;4693825;29;19919;-88
2022/03/27 07:30:34;;;;;;;;;;;;;;;-145.06;0.00;60892.56;4686162;29;20007;-89
2022/03/27 07:33:17;;;;;;;;;;;;;;;-145.06;0.00;60892.56;4688701;29;19916;-88
2022/03/27 07:35:57;;;;;;;;;;;;;;;-145.06;0.00;60892.56;4686890;29;20015;-89
2022/03/27 07:38:35;;;;;;;;;;;;;;;-145.06;0.00;60892.56;4687852;29;19916;-88
2022/03/27 07:41:14;;;;;;;;;;;;;;;-145.06;0.00;60892.56;4680600;29;20399;-89
2022/03/27 07:43:53;;;;;;;;;;;;;;;-145.06;0.00;60892.56;4687973;29;19920;-89
2022/03/27 07:46:32;;;;;;;;;;;;;;;-145.06;0.00;60892.56;4683143;29;19916;-90
2022/03/27 07:49:11;;;;;;;;;;;;;;;-145.06;0.00;60892.56;4694813;29;19955;-90
2022/03/27 07:51:50;;;;;;;;;;;;;;;-145.06;0.00;60892.56;4689206;29;19924;-90
2022/03/27 07:54:29;;;;;;;;;;;;;;;-145.06;0.00;60892.56;4689092;29;20362;-90
2022/03/27 07:57:08;;;;;;;;;;;;;;;-145.06;0.00;60892.56;4687436;29;19915;-90
2022/03/27 07:59:48;;;;;;;;;;;;;;;-145.06;0.00;60892.56;4683849;29;19920;-90
2022/03/27 08:02:27;;;;;;;;;;;;;;;-145.06;0.00;60892.56;4687445;29;20038;-90
2022/03/27 08:05:06;;;;;;;;;;;;;;;-145.06;0.00;60892.56;4688067;29;19916;-89
2022/03/27 08:07:46;;;;;;;;;;;;;;;-145.06;0.00;60892.56;4690350;29;19915;-90
2022/03/27 08:10:25;;;;;;;;;;;;;;;-145.06;0.00;60892.56;4688766;29;20335;-90
2022/03/27 08:13:04;;;;;;;;;;;;;;;-145.06;0.00;60892.56;4677922;29;19916;-90
2022/03/27 08:15:42;;;;;;;;;;;;;;;-145.06;0.00;60892.56;4670349;29;19920;-90
2022/03/27 08:18:21;;;;;;;;;;;;;;;-145.06;0.00;60892.56;4692865;29;19924;-90
2022/03/27 08:21:00;;;;;;;;;;;;;;;-145.06;0.00;60892.56;4688748;29;19919;-90
2022/03/27 08:23:39;;;;;;;;;;;;;;;-145.06;0.00;60892.56;4689004;29;19920;-90
2022/03/27 08:29:19;;;;;;;;;;;;;;;-145.06;0.00;60892.56;4694315;29;19916;-89
2022/03/27 08:32:00;;;;;;;;;;;;;;;-145.06;0.00;60892.56;4686890;29;20335;-89
2022/03/27 08:34:40;;;;;;;;;;;;;;;-145.06;0.00;60892.56;4689226;29;20153;-90
2022/03/27 08:37:19;;;;;;;;;;;;;;;-145.06;0.00;60892.56;4688493;29;20347;-90
2022/03/27 08:39:58;;;;;;;;;;;;;;;-145.06;0.00;60892.56;4686043;29;20430;-89
2022/03/27 08:42:37;;;;;;;;;;;;;;;-145.06;0.00;60892.56;4694991;29;20280;-90
2022/03/27 08:45:16;;;;;;;;;;;;;;;-145.06;0.00;60892.56;4688922;29;19916;-90
2022/03/27 08:47:55;;;;;;;;;;;;;;;-145.06;0.00;60892.56;4685448;29;19920;-90
2022/03/27 08:50:49;;;;;;;;;;;;;;;-145.06;0.00;60892.56;4686510;29;19916;-90
2022/03/27 08:53:30;;;;;;;;;;;;;;;-145.06;0.00;60892.56;4690793;29;19915;-90
2022/03/27 08:56:09;;;;;;;;;;;;;;;-145.06;0.00;60892.56;4684213;29;19920;-89
2022/03/27 08:58:48;;;;;;;;;;;;;;;-145.06;0.00;60892.56;4695475;29;19916;-90
2022/03/27 09:01:28;;;;;;;;;;;;;;;-145.06;0.00;60892.56;4687815;29;20427;-90
2022/03/27 09:04:13;;;;;;;;;;;;;;;-145.06;0.00;60892.56;4703459;29;19924;-91
2022/03/27 09:06:53;;;;;;;;;;;;;;;-145.06;0.00;60892.56;4709297;29;19967;-90
2022/03/27 09:09:32;;;;;;;;;;;;;;;-145.06;0.00;60892.56;4692136;29;19916;-89
2022/03/27 09:12:11;;;;;;;;;;;;;;;-145.06;0.00;60892.56;4692150;29;19952;-91
2022/03/27 09:14:50;;;;;;;;;;;;;;;-145.06;0.00;60892.56;4689434;29;20030;-90
2022/03/27 09:17:29;;;;;;;;;;;;;;;-145.06;0.00;60892.56;4691289;29;19916;-90
2022/03/27 09:20:08;;;;;;;;;;;;;;;-145.06;0.00;60892.56;4686537;29;19916;-90
2022/03/27 09:22:47;;;;;;;;;;;;;;;-145.06;0.00;60892.56;4680801;29;19920;-90
2022/03/27 09:25:28;;;;;;;;;;;;;;;-145.06;0.00;60892.56;4697574;29;20252;-87
2022/03/27 09:28:06;;;;;;;;;;;;;;;-145.06;0.00;60892.56;4681413;29;19951;-87
2022/03/27 09:30:45;;;;;;;;;;;;;;;-145.06;0.00;60892.56;4690934;29;20276;-88
2022/03/27 09:33:50;;;;;;;;;;;;;;;-145.06;0.00;60892.56;4685630;29;19924;-91
2022/03/27 09:36:30;;;;;;;;;;;;;;;-145.06;0.00;60892.56;4683371;29;20271;-89
2022/03/27 09:39:09;;;;;;;;;;;;;;;-145.06;0.00;60892.56;4690869;29;19920;-89
2022/03/27 09:41:53;;;;;;;;;;;;;;;-145.06;0.00;60892.56;4689057;29;20280;-89
2022/03/27 09:44:34;;;;;;;;;;;;;;;-145.06;0.00;60892.56;4680624;29;19924;-90
2022/03/27 09:47:13;;;;;;;;;;;;;;;-145.06;0.00;60892.56;4684830;29;19920;-90
2022/03/27 09:49:52;;;;;;;;;;;;;;;-145.06;0.00;60892.56;4684559;29;19920;-90
2022/03/27 09:52:33;;;;;;;;;;;;;;;-145.06;0.00;60892.56;4685509;29;19963;-89
2022/03/27 09:55:12;;;;;;;;;;;;;;;-145.06;0.00;60892.56;4685462;29;19920;-89
2022/03/27 09:57:57;;;;;;;;;;;;;;;-145.06;0.00;60892.56;4685918;29;19916;-90
2022/03/27 10:00:36;;;;;;;;;;;;;;;-145.06;0.00;60892.56;4684360;29;19920;-91
2022/03/27 10:03:15;;;;;;;;;;;;;;;-145.06;0.00;60892.56;4683460;29;19920;-89
2022/03/27 10:05:54;;;;;;;;;;;;;;;-145.06;0.00;60892.56;4684092;29;19951;-90
2022/03/27 10:08:34;;;;;;;;;;;;;;;-145.06;0.00;60892.56;4686827;29;19920;-87
2022/03/27 10:11:18;;;;;;;;;;;;;;;-145.06;0.00;60892.56;4684863;29;19942;-87
2022/03/27 10:13:58;;;;;;;;;;;;;;;-145.06;0.00;60892.56;4688660;29;19920;-87
2022/03/27 10:16:38;;;;;;;;;;;;;;;-145.06;0.00;60892.56;4691901;29;19919;-90
2022/03/27 10:19:22;;;;;;;;;;;;;;;-145.06;0.00;60892.56;4686196;29;19924;-91
2022/03/27 10:22:02;;;;;;;;;;;;;;;-145.06;0.00;60892.56;4687400;29;19919;-90
2022/03/27 10:24:44;;;;;;;;;;;;;;;-145.06;0.00;60892.56;4681689;29;20363;-89
2022/03/27 10:27:23;;;;;;;;;;;;;;;-145.06;0.00;60892.56;4697599;29;19924;-89
2022/03/27 10:30:03;;;;;;;;;;;;;;;-145.06;0.00;60892.56;4682676;29;19924;-90
2022/03/27 10:32:42;;;;;;;;;;;;;;;-145.06;0.00;60892.56;4683189;29;19963;-90
2022/03/27 10:35:36;;;;;;;;;;;;;;;-145.06;0.00;60892.56;4686803;29;19919;-90
2022/03/27 10:38:28;;;;;;;;;;;;;;;-145.06;0.00;60892.56;4688820;29;19920;-88
2022/03/27 10:41:09;;;;;;;;;;;;;;;-145.06;0.00;60892.56;4687864;29;19920;-87
2022/03/27 10:44:03;;;;;;;;;;;;;;;-145.06;0.00;60892.56;4685565;29;19924;-88
2022/03/27 10:46:46;;;;;;;;;;;;;;;-145.06;0.00;60892.56;4684365;29;19919;-88
2022/03/27 10:49:24;;;;;;;;;;;;;;;-145.06;0.00;60892.56;4684475;29;19920;-88
2022/03/27 10:52:04;;;;;;;;;;;;;;;-145.06;0.00;60892.56;4687013;29;19998;-88
2022/03/27 10:54:59;;;;;;;;;;;;;;;-145.06;0.00;60892.56;4685657;29;19920;-88
2022/03/27 10:57:39;;;;;;;;;;;;;;;-145.06;0.00;60892.56;4684003;29;19920;-88
2022/03/27 11:00:36;;;;;;;;;;;;;;;-145.06;0.00;60892.56;4693860;29;19920;-88
2022/03/27 11:03:35;;;;;;;;;;;;;;;-145.06;0.00;60892.56;4690080;29;19924;-88
2022/03/27 11:06:27;;;;;;;;;;;;;;;-145.06;0.00;60892.56;4698858;29;20362;-88
2022/03/27 11:09:07;;;;;;;;;;;;;;;-145.06;0.00;60892.56;4684719;29;19920;-87
2022/03/27 11:11:51;;;;;;;;;;;;;;;-145.06;0.00;60892.56;4681931;29;19979;-87
2022/03/27 11:14:49;;;;;;;;;;;;;;;-145.06;0.00;60892.56;4682769;29;20407;-88
2022/03/27 11:17:45;;;;;;;;;;;;;;;-145.06;0.00;60892.56;4698042;29;19920;-87
2022/03/27 11:20:23;;;;;;;;;;;;;;;-145.06;0.00;60892.56;4683607;29;19920;-88
2022/03/27 11:23:04;;;;;;;;;;;;;;;-145.06;0.00;60892.56;4686220;29;20022;-88
2022/03/27 11:25:46;;;;;;;;;;;;;;;-145.06;0.00;60892.56;4683172;29;19920;-89
2022/03/27 11:28:32;;;;;;;;;;;;;;;-145.06;0.00;60892.56;4701611;29;19920;-89
2022/03/27 11:31:11;;;;;;;;;;;;;;;-145.06;0.00;60892.56;4703261;29;20058;-90
2022/03/27 11:34:02;;;;;;;;;;;;;;;-145.06;0.00;60892.56;4692360;29;19932;-89
2022/03/27 11:36:43;;;;;;;;;;;;;;;-145.06;0.00;60892.56;4686183;29;19920;-89
2022/03/27 11:39:28;;;;;;;;;;;;;;;-145.06;0.00;60892.56;4686962;29;19924;-89
2022/03/27 11:42:24;;;;;;;;;;;;;;;-145.06;0.00;60892.56;4684904;29;20351;-90
2022/03/27 11:45:16;;;;;;;;;;;;;;;-145.06;0.00;60892.56;4685506;29;19955;-89
2022/03/27 11:47:55;;;;;;;;;;;;;;;-145.06;0.00;60892.56;4684491;29;20272;-88
2022/03/27 11:50:34;;;;;;;;;;;;;;;-145.06;0.00;60892.56;4685262;29;19920;-88
2022/03/27 11:53:14;;;;;;;;;;;;;;;-145.06;0.00;60892.56;4690410;29;19920;-89
2022/03/27 11:55:52;;;;;;;;;;;;;;;-145.06;0.00;60892.56;4685168;29;19923;-88
2022/03/27 11:58:32;;;;;;;;;;;;;;;-145.06;0.00;60892.56;4681774;29;19920;-88
2022/03/27 12:01:14;;;;;;;;;;;;;;;-145.06;0.00;60892.56;4685561;29;20251;-92
2022/03/27 12:04:05;;;;;;;;;;;;;;;-145.06;0.00;60892.56;4680362;29;20018;-87
2022/03/27 12:06:44;;;;;;;;;;;;;;;-145.06;0.00;60892.56;4685468;29;19931;-88
2022/03/27 12:09:24;;;;;;;;;;;;;;;-145.06;0.00;60892.56;4684243;29;19924;-87
2022/03/27 12:12:10;;;;;;;;;;;;;;;-145.06;0.00;60892.56;4683089;29;19951;-88
2022/03/27 12:14:54;;;;;;;;;;;;;;;-145.06;0.00;60892.56;4681800;29;20388;-88
2022/03/27 12:17:46;;;;;;;;;;;;;;;-145.06;0.00;60892.56;4682219;29;20374;-90
2022/03/27 12:20:28;;;;;;;;;;;;;;;-145.06;0.00;60892.56;4678518;29;19923;-88
2022/03/27 12:23:29;;;;;;;;;;;;;;;-145.06;0.00;60892.56;4666297;29;20390;-89
2022/03/27 12:29:43;;;;;;;;;;;;;;;-145.06;0.00;60892.56;4683925;29;20284;-89
2022/03/27 12:32:25;;;;;;;;;;;;;;;-145.06;0.00;60892.56;4688531;29;19916;-87
2022/03/27 12:35:06;;;;;;;;;;;;;;;-145.06;0.00;60892.56;4689158;29;20595;-88
2022/03/27 12:37:45;;;;;;;;;;;;;;;-145.06;0.00;60892.56;4691617;29;19959;-89
2022/03/27 12:40:25;;;;;;;;;;;;;;;-145.06;0.00;60892.56;4689891;29;19920;-92
2022/03/27 12:43:11;;;;;;;;;;;;;;;-145.06;0.00;60892.56;4690390;29;19924;-92
2022/03/27 12:45:51;;;;;;;;;;;;;;;-145.06;0.00;60892.56;4692406;29;20418;-89
2022/03/27 12:48:33;;;;;;;;;;;;;;;-145.06;0.00;60892.56;4688596;29;19919;-92
2022/03/27 12:51:12;;;;;;;;;;;;;;;-145.06;0.00;60892.56;4691176;29;19920;-91
2022/03/27 12:54:20;;;;;;;;;;;;;;;-145.06;0.00;60892.56;4692544;29;19920;-90
2022/03/27 12:56:59;;;;;;;;;;;;;;;-145.06;0.00;60892.56;4678929;29;19919;-90
2022/03/27 12:59:42;;;;;;;;;;;;;;;-145.06;0.00;60892.56;4681704;29;19920;-90
2022/03/27 13:02:25;;;;;;;;;;;;;;;-145.06;0.00;60892.56;4686048;29;19970;-91
2022/03/27 13:05:07;;;;;;;;;;;;;;;-145.06;0.00;60892.56;4687880;29;19924;-90
2022/03/27 13:07:56;;;;;;;;;;;;;;;-145.06;0.00;60892.56;4687067;29;19920;-90
2022/03/27 13:10:39;;;;;;;;;;;;;;;-145.06;0.00;60892.56;4683528;29;20339;-90
2022/03/27 13:13:18;;;;;;;;;;;;;;;-145.06;0.00;60892.56;4687846;29;19924;-91
2022/03/27 13:15:57;;;;;;;;;;;;;;;-145.06;0.00;60892.56;4683273;29;20256;-87
2022/03/27 13:18:36;;;;;;;;;;;;;;;-145.06;0.00;60892.56;4691087;29;19920;-88
2022/03/27 13:21:16;;;;;;;;;;;;;;;-145.06;0.00;60892.56;4693348;29;19915;-88
2022/03/27 13:23:55;;;;;;;;;;;;;;;-145.06;0.00;60892.56;4685254;29;20239;-91
2022/03/27 13:26:35;;;;;;;;;;;;;;;-145.06;0.00;60892.56;4683651;29;21405;-91
2022/03/27 13:29:15;;;;;;;;;;;;;;;-145.06;0.00;60892.56;4680114;29;19952;-89
2022/03/27 13:31:54;;;;;;;;;;;;;;;-145.06;0.00;60892.56;4682377;29;19924;-89
2022/03/27 13:34:36;;;;;;;;;;;;;;;-145.06;0.00;60892.56;4677636;29;19924;-87
2022/03/27 13:37:15;;;;;;;;;;;;;;;-145.06;0.00;60892.56;4691962;29;19921;-90
2022/03/27 13:39:54;;;;;;;;;;;;;;;-145.06;0.00;60892.56;4688099;29;20383;-91
2022/03/27 13:45:35;;;;;;;;;;;;;;;-145.06;0.00;60892.56;4693646;29;19920;-91
2022/03/27 13:48:13;;;;;;;;;;;;;;;-145.06;0.00;60892.56;4687853;29;19920;-91
2022/03/27 13:50:53;;;;;;;;;;;;;;;-145.06;0.00;60892.56;4682795;29;19967;-89
2022/03/27 13:53:32;;;;;;;;;;;;;;;-145.06;0.00;60892.56;4682858;29;19959;-91
2022/03/27 13:56:24;;;;;;;;;;;;;;;;;;;;;
2022/03/27 13:59:03;;;;;;;;;;;;;;;-145.06;0.00;60892.56;4693919;29;19920;-91
2022/03/27 14:01:47;;;;;;;;;;;;;;;-145.06;0.00;60892.56;4687066;29;19920;-91